createdAt,value
2018-03-26T00:01:51.804Z,20.83
2018-03-26T00:04:19.102Z,19.47
2018-03-26T00:06:46.410Z,21.93
2018-03-26T00:09:13.689Z,19.40
2018-03-26T00:11:41.011Z,19.73
2018-03-26T00:14:08.313Z,18.47
2018-03-26T00:16:35.609Z,21.23
2018-03-26T00:19:02.912Z,20.43
2018-03-26T00:21:30.232Z,21.07
2018-03-26T00:23:57.613Z,21.77
2018-03-26T00:26:24.891Z,20.73
2018-03-26T00:28:52.177Z,22.27
2018-03-26T00:31:19.508Z,22.47
2018-03-26T00:33:46.771Z,20.60
2018-03-26T00:38:47.991Z,20.70
2018-03-26T00:41:15.303Z,22.90
2018-03-26T00:43:42.599Z,20.17
2018-03-26T00:46:09.900Z,21.10
2018-03-26T00:48:37.196Z,21.10
2018-03-26T00:51:04.505Z,22.23
2018-03-26T00:53:37.504Z,23.33
2018-03-26T00:56:04.799Z,23.17
2018-03-26T00:58:32.130Z,23.00
2018-03-26T01:00:59.463Z,22.93
2018-03-26T01:03:26.739Z,23.50
2018-03-26T01:05:54.026Z,22.80
2018-03-26T01:08:21.355Z,22.10
2018-03-26T01:10:48.619Z,25.60
2018-03-26T01:13:15.919Z,24.00
2018-03-26T01:15:43.243Z,23.43
2018-03-26T01:18:10.546Z,27.00
2018-03-26T01:20:38.822Z,24.30
2018-03-26T01:23:06.123Z,24.33
2018-03-26T01:25:33.402Z,24.90
2018-03-26T01:28:00.705Z,23.27
2018-03-26T01:30:28.002Z,24.57
2018-03-26T01:32:55.318Z,22.83
2018-03-26T01:35:22.635Z,25.20
2018-03-26T01:37:50.069Z,23.10
2018-03-26T01:40:17.353Z,28.10
2018-03-26T01:42:44.655Z,24.90
2018-03-26T01:45:11.941Z,24.53
2018-03-26T01:47:39.242Z,24.77
2018-03-26T01:50:06.562Z,27.00
2018-03-26T01:52:33.860Z,26.70
2018-03-26T01:55:01.156Z,24.80
2018-03-26T01:57:28.442Z,25.70
2018-03-26T01:59:55.744Z,23.97
2018-03-26T02:02:23.046Z,24.90
2018-03-26T02:04:50.343Z,26.20
2018-03-26T02:07:17.700Z,24.50
2018-03-26T02:09:45.010Z,23.80
2018-03-26T02:12:12.322Z,25.80
2018-03-26T02:14:39.659Z,26.13
2018-03-26T02:17:06.981Z,25.73
2018-03-26T02:19:34.271Z,25.30
2018-03-26T02:22:01.586Z,31.30
2018-03-26T02:24:28.896Z,25.50
2018-03-26T02:26:56.196Z,27.20
2018-03-26T02:29:23.470Z,25.33
2018-03-26T02:31:50.812Z,27.20
2018-03-26T02:34:18.208Z,25.83
2018-03-26T02:36:45.535Z,25.23
2018-03-26T02:39:12.824Z,24.93
2018-03-26T02:41:40.141Z,28.50
2018-03-26T02:44:07.430Z,23.77
2018-03-26T02:46:34.712Z,25.10
2018-03-26T02:49:02.017Z,23.23
2018-03-26T02:51:29.326Z,25.27
2018-03-26T02:53:56.621Z,24.43
2018-03-26T02:56:23.991Z,35.83
2018-03-26T02:58:51.284Z,23.63
2018-03-26T03:01:18.598Z,26.50
2018-03-26T03:03:45.912Z,25.80
2018-03-26T03:06:13.443Z,26.93
2018-03-26T03:08:40.733Z,25.40
2018-03-26T03:11:08.018Z,23.73
2018-03-26T03:13:35.339Z,23.60
2018-03-26T03:16:02.662Z,22.77
2018-03-26T03:18:29.970Z,22.80
2018-03-26T03:20:57.259Z,24.97
2018-03-26T03:23:24.567Z,24.10
2018-03-26T03:25:51.886Z,23.57
2018-03-26T03:28:19.179Z,24.03
2018-03-26T03:30:46.546Z,29.57
2018-03-26T03:33:13.824Z,24.80
2018-03-26T03:35:41.380Z,26.10
2018-03-26T03:38:08.672Z,25.90
2018-03-26T03:40:36.310Z,25.83
2018-03-26T03:43:03.598Z,25.13
2018-03-26T03:45:30.902Z,25.87
2018-03-26T03:47:58.190Z,26.90
2018-03-26T03:50:25.482Z,28.10
2018-03-26T03:52:52.778Z,24.37
2018-03-26T03:55:20.085Z,27.33
2018-03-26T03:57:47.392Z,24.73
2018-03-26T04:00:14.690Z,23.80
2018-03-26T04:02:42.021Z,24.40
2018-03-26T04:05:09.319Z,34.03
2018-03-26T04:07:36.624Z,26.33
2018-03-26T04:10:03.935Z,26.90
2018-03-26T04:12:31.224Z,24.27
2018-03-26T04:14:58.541Z,26.60
2018-03-26T04:17:25.868Z,28.17
2018-03-26T04:19:53.251Z,29.10
2018-03-26T04:22:20.546Z,28.27
2018-03-26T04:24:47.890Z,28.50
2018-03-26T04:27:15.188Z,26.33
2018-03-26T04:29:42.472Z,26.93
2018-03-26T04:32:09.864Z,27.60
2018-03-26T04:34:37.171Z,27.67
2018-03-26T04:37:04.493Z,29.87
2018-03-26T04:39:31.784Z,26.93
2018-03-26T04:41:59.082Z,30.33
2018-03-26T04:44:26.369Z,31.17
2018-03-26T04:46:53.674Z,30.43
2018-03-26T04:49:21.188Z,27.97
2018-03-26T04:51:48.477Z,27.97
2018-03-26T04:54:15.773Z,29.97
2018-03-26T04:56:43.761Z,29.53
2018-03-26T04:59:11.048Z,29.80
2018-03-26T05:01:38.363Z,28.93
2018-03-26T05:04:05.653Z,33.60
2018-03-26T05:06:32.937Z,28.57
2018-03-26T05:09:00.271Z,30.07
2018-03-26T05:11:27.543Z,30.07
2018-03-26T05:13:54.928Z,29.43
2018-03-26T05:16:22.214Z,28.27
2018-03-26T05:18:49.777Z,31.20
2018-03-26T05:21:17.136Z,30.40
2018-03-26T05:23:44.437Z,31.07
2018-03-26T05:26:11.733Z,30.20
2018-03-26T05:28:39.300Z,30.93
2018-03-26T05:31:06.635Z,30.60
2018-03-26T05:33:34.647Z,31.60
2018-03-26T05:36:01.937Z,30.67
2018-03-26T05:38:29.255Z,30.87
2018-03-26T05:40:56.558Z,29.53
2018-03-26T05:43:23.864Z,29.67
2018-03-26T05:45:51.173Z,32.13
2018-03-26T05:48:18.525Z,31.67
2018-03-26T05:50:45.871Z,30.20
2018-03-26T05:53:13.504Z,32.77
2018-03-26T05:55:40.839Z,30.33
2018-03-26T05:58:08.127Z,33.37
2018-03-26T06:00:35.415Z,29.77
2018-03-26T06:03:02.724Z,29.53
2018-03-26T06:05:30.155Z,31.07
2018-03-26T06:07:58.288Z,29.83
2018-03-26T06:10:25.617Z,30.33
2018-03-26T06:12:53.248Z,29.40
2018-03-26T06:15:20.635Z,28.10
2018-03-26T06:17:47.961Z,28.67
2018-03-26T06:20:15.508Z,26.60
2018-03-26T06:22:42.826Z,28.93
2018-03-26T06:25:10.197Z,29.00
2018-03-26T06:27:37.498Z,32.07
2018-03-26T06:30:04.829Z,28.27
2018-03-26T06:35:08.404Z,30.87
2018-03-26T06:37:41.371Z,31.80
2018-03-26T06:40:09.640Z,28.53
2018-03-26T06:42:36.928Z,30.23
2018-03-26T06:45:04.492Z,29.97
2018-03-26T06:47:31.878Z,29.23
2018-03-26T06:49:59.175Z,30.20
2018-03-26T06:52:26.513Z,29.83
2018-03-26T06:54:54.000Z,31.97
2018-03-26T06:57:21.614Z,30.63
2018-03-26T06:59:50.611Z,31.70
2018-03-26T07:02:18.004Z,32.20
2018-03-26T07:04:45.314Z,30.33
2018-03-26T07:07:12.742Z,33.50
2018-03-26T07:09:43.627Z,32.20
2018-03-26T07:12:12.319Z,32.00
2018-03-26T07:14:44.395Z,30.03
2018-03-26T07:17:11.778Z,32.73
2018-03-26T07:19:40.668Z,29.53
2018-03-26T07:22:11.969Z,30.70
2018-03-26T07:24:39.832Z,28.67
2018-03-26T07:27:07.302Z,29.17
2018-03-26T07:29:34.712Z,32.37
2018-03-26T07:32:02.482Z,31.97
2018-03-26T07:34:29.900Z,30.90
2018-03-26T07:36:57.213Z,30.77
2018-03-26T07:39:24.645Z,31.70
2018-03-26T07:41:52.241Z,29.27
2018-03-26T07:44:19.809Z,30.30
2018-03-26T07:46:47.118Z,29.93
2018-03-26T07:49:14.672Z,29.93
2018-03-26T07:51:42.442Z,29.37
2018-03-26T07:54:10.140Z,31.47
2018-03-26T07:56:41.481Z,32.90
2018-03-26T07:59:12.635Z,29.70
2018-03-26T08:01:40.063Z,29.73
2018-03-26T08:04:07.982Z,31.77
2018-03-26T08:06:38.928Z,30.77
2018-03-26T08:09:06.396Z,29.27
2018-03-26T08:11:33.706Z,33.80
2018-03-26T08:14:01.091Z,30.03
2018-03-26T08:16:28.471Z,28.70
2018-03-26T08:18:59.622Z,30.90
2018-03-26T08:21:27.095Z,29.00
2018-03-26T08:23:54.502Z,28.40
2018-03-26T08:26:21.883Z,29.00
2018-03-26T08:28:49.171Z,27.80
2018-03-26T08:31:16.613Z,29.30
2018-03-26T08:33:44.252Z,28.47
2018-03-26T08:36:13.227Z,27.83
2018-03-26T08:38:41.234Z,29.73
2018-03-26T08:41:09.763Z,29.97
2018-03-26T08:43:37.067Z,29.80
2018-03-26T08:46:04.384Z,29.70
2018-03-26T08:48:31.844Z,29.53
2018-03-26T08:50:59.222Z,27.60
2018-03-26T08:53:29.363Z,26.57
2018-03-26T08:58:25.998Z,26.57
2018-03-26T09:00:54.320Z,27.30
2018-03-26T09:08:24.963Z,29.43
2018-03-26T09:10:52.296Z,26.67
2018-03-26T09:13:19.629Z,27.70
2018-03-26T09:15:47.166Z,31.03
2018-03-26T09:18:14.559Z,26.40
2018-03-26T09:20:43.708Z,30.30
2018-03-26T09:23:11.016Z,27.60
2018-03-26T09:25:39.376Z,25.90
2018-03-26T09:28:06.765Z,26.30
2018-03-26T09:30:34.121Z,29.13
2018-03-26T09:33:01.729Z,27.87
2018-03-26T09:35:29.056Z,26.03
2018-03-26T09:37:56.365Z,29.07
2018-03-26T09:40:23.717Z,26.77
2018-03-26T09:42:51.175Z,26.80
2018-03-26T09:47:50.079Z,30.23
2018-03-26T09:50:17.431Z,28.43
2018-03-26T09:52:44.945Z,28.00
2018-03-26T09:55:12.323Z,27.20
2018-03-26T09:57:39.671Z,29.00
2018-03-26T10:00:06.992Z,28.07
2018-03-26T10:02:34.511Z,29.93
2018-03-26T10:05:01.824Z,28.73
2018-03-26T10:07:29.186Z,28.43
2018-03-26T10:09:56.860Z,27.83
2018-03-26T10:12:24.165Z,29.50
2018-03-26T11:04:08.457Z,29.70
2018-03-26T11:06:36.043Z,26.63
2018-03-26T11:09:03.478Z,28.20
2018-03-26T11:14:04.899Z,26.97
2018-03-26T11:16:32.728Z,28.10
2018-03-26T11:19:00.571Z,26.43
2018-03-26T11:21:28.525Z,27.63
2018-03-26T11:26:28.236Z,28.43
2018-03-26T11:28:55.580Z,28.17
2018-03-26T11:31:22.971Z,27.07
2018-03-26T11:39:32.346Z,26.80
2018-03-26T11:41:59.690Z,26.60
2018-03-26T11:44:28.187Z,27.47
2018-03-26T11:46:56.496Z,29.43
2018-03-26T11:49:26.026Z,26.50
2018-03-26T11:51:53.453Z,28.30
2018-03-26T11:56:52.970Z,30.20
2018-03-26T11:59:20.598Z,28.20
2018-03-26T12:04:19.792Z,29.13
2018-03-26T12:06:47.900Z,30.20
2018-03-26T12:09:15.660Z,28.80
2018-03-26T12:11:42.956Z,27.50
2018-03-26T12:14:11.944Z,29.17
2018-03-26T12:16:39.608Z,29.50
2018-03-26T12:21:41.019Z,28.87
2018-03-26T12:24:14.900Z,31.50
2018-03-26T12:26:42.220Z,29.60
2018-03-26T12:29:15.520Z,31.53
2018-03-26T12:31:43.414Z,30.97
2018-03-26T12:34:16.632Z,29.30
2018-03-26T12:36:44.329Z,29.40
2018-03-26T12:39:15.343Z,30.50
2018-03-26T12:41:42.806Z,31.33
2018-03-26T12:44:14.569Z,31.00
2018-03-26T12:51:54.851Z,30.07
2018-03-26T12:54:22.330Z,30.80
2018-03-26T12:59:36.621Z,28.10
2018-03-26T13:02:09.839Z,29.70
2018-03-26T13:07:11.584Z,28.70
2018-03-26T13:09:39.864Z,26.47
2018-03-26T13:12:10.818Z,27.17
2018-03-26T13:14:38.153Z,26.50
2018-03-26T13:17:07.188Z,28.27
2018-03-26T13:19:34.562Z,27.07
2018-03-26T13:22:03.244Z,26.30
2018-03-26T13:27:02.328Z,27.60
2018-03-26T13:29:29.848Z,27.70
2018-03-26T13:37:01.878Z,27.23
2018-03-26T13:39:29.440Z,28.17
2018-03-26T13:41:56.798Z,28.70
2018-03-26T13:46:56.397Z,29.40
2018-03-26T13:49:24.111Z,30.13
2018-03-26T13:51:51.819Z,31.50
2018-03-26T13:59:30.596Z,29.40
2018-03-26T14:01:57.947Z,29.90
2018-03-26T14:06:56.883Z,33.07
2018-03-26T14:12:15.678Z,29.40
2018-03-26T14:14:50.611Z,35.63
2018-03-26T14:17:23.680Z,31.70
2018-03-26T14:27:43.906Z,33.93
2018-03-26T14:32:44.495Z,32.00
2018-03-26T14:38:05.724Z,30.63
2018-03-26T14:43:08.444Z,32.00
2018-03-26T14:45:36.919Z,30.90
2018-03-26T14:50:35.971Z,31.23
2018-03-26T14:53:03.326Z,33.57
2018-03-26T14:58:06.122Z,31.10
2018-03-26T15:00:33.482Z,31.50
2018-03-26T15:03:00.880Z,32.70
2018-03-26T15:08:00.899Z,33.10
2018-03-26T15:12:59.888Z,31.70
2018-03-26T15:18:08.534Z,32.63
2018-03-26T15:20:35.954Z,34.20
2018-03-26T15:23:03.348Z,34.53
2018-03-26T15:30:34.330Z,32.23
2018-03-26T15:33:02.608Z,34.30
2018-03-26T15:35:30.034Z,34.27
2018-03-26T15:40:33.288Z,33.77
2018-03-26T15:48:05.089Z,31.03
2018-03-26T15:53:15.085Z,33.27
2018-03-26T15:55:45.718Z,36.47
2018-03-26T15:58:13.183Z,32.70
2018-03-26T16:00:40.561Z,37.73
2018-03-26T16:03:13.883Z,34.53
2018-03-26T16:15:49.838Z,31.77
2018-03-26T16:18:17.480Z,33.77
2018-03-26T16:20:46.694Z,31.20
2018-03-26T16:23:15.291Z,31.10
2018-03-26T16:25:44.396Z,33.80
2018-03-26T16:31:18.441Z,33.07
2018-03-26T16:36:21.368Z,31.53
2018-03-26T16:38:48.747Z,32.77
2018-03-26T16:41:31.655Z,33.47
2018-03-26T16:43:59.170Z,30.70
2018-03-26T16:49:00.756Z,33.27
2018-03-26T16:53:59.805Z,34.77
2018-03-26T16:56:27.135Z,31.37
2018-03-26T16:58:54.464Z,33.43
2018-03-26T17:01:21.777Z,32.77
2018-03-26T17:03:49.104Z,37.60
2018-03-26T17:06:16.504Z,31.50
2018-03-26T17:08:45.652Z,33.07
2018-03-26T17:11:13.293Z,32.53
2018-03-26T17:13:41.072Z,26.37
2018-03-26T17:16:08.444Z,30.80
2018-03-26T17:18:35.868Z,30.53
2018-03-26T17:21:03.978Z,29.20
2018-03-26T17:23:31.367Z,27.80
2018-03-26T17:28:34.157Z,29.20
2018-03-26T17:31:01.511Z,33.40
2018-03-26T17:36:02.558Z,32.20
2018-03-26T17:41:01.728Z,31.03
2018-03-26T17:43:29.040Z,33.47
2018-03-26T17:45:56.738Z,32.80
2018-03-26T17:48:24.198Z,33.70
2018-03-26T17:50:51.534Z,30.50
2018-03-26T17:53:18.997Z,30.07
2018-03-26T17:55:48.026Z,30.07
2018-03-26T17:58:15.464Z,30.87
2018-03-26T18:00:42.774Z,38.93
2018-03-26T18:03:10.092Z,34.57
2018-03-26T18:05:37.541Z,31.27
2018-03-26T18:08:04.852Z,29.37
2018-03-26T18:10:32.272Z,31.80
2018-03-26T18:12:59.625Z,35.30
2018-03-26T18:15:29.286Z,35.10
2018-03-26T18:17:56.628Z,37.53
2018-03-26T18:20:24.846Z,34.37
2018-03-26T18:22:52.226Z,35.50
2018-03-26T18:25:19.761Z,40.27
2018-03-26T18:27:47.175Z,38.57
2018-03-26T18:30:14.499Z,38.50
2018-03-26T18:32:41.824Z,38.60
2018-03-26T18:35:09.141Z,37.87
2018-03-26T18:37:37.528Z,37.83
2018-03-26T18:40:04.888Z,38.60
2018-03-26T18:42:32.368Z,36.10
2018-03-26T18:44:59.823Z,36.97
2018-03-26T18:47:27.125Z,37.80
2018-03-26T18:49:54.547Z,36.33
2018-03-26T18:52:21.867Z,37.00
2018-03-26T18:54:49.177Z,38.53
2018-03-26T18:57:16.576Z,34.80
2018-03-26T18:59:43.984Z,38.50
2018-03-26T19:02:11.295Z,34.43
2018-03-26T19:04:38.694Z,37.10
2018-03-26T19:07:06.574Z,36.50
2018-03-26T19:09:33.976Z,36.67
2018-03-26T19:12:01.342Z,37.23
2018-03-26T19:14:30.662Z,38.10
2018-03-26T19:16:59.301Z,37.33
2018-03-26T19:19:26.672Z,38.27
2018-03-26T19:21:54.075Z,38.53
2018-03-26T19:24:21.572Z,33.80
2018-03-26T19:26:49.271Z,36.53
2018-03-26T19:29:16.629Z,37.80
2018-03-26T19:31:43.953Z,37.20
2018-03-26T19:34:11.344Z,36.03
2018-03-26T19:36:38.666Z,38.10
2018-03-26T19:39:05.975Z,39.47
2018-03-26T19:41:33.318Z,39.53
2018-03-26T19:44:00.646Z,44.43
2018-03-26T19:46:27.923Z,41.57
2018-03-26T19:48:55.231Z,44.50
2018-03-26T19:51:22.534Z,46.73
2018-03-26T19:53:49.883Z,42.33
2018-03-26T19:56:17.187Z,42.70
2018-03-26T19:58:44.522Z,45.17
2018-03-26T20:01:11.823Z,45.30
2018-03-26T20:03:39.650Z,45.63
2018-03-26T20:06:06.944Z,45.70
2018-03-26T20:08:34.247Z,46.10
2018-03-26T20:11:01.616Z,45.13
2018-03-26T20:13:28.943Z,46.47
2018-03-26T20:15:56.231Z,50.27
2018-03-26T20:18:23.536Z,45.97
2018-03-26T20:20:50.850Z,44.40
2018-03-26T20:23:18.400Z,47.80
2018-03-26T20:25:45.697Z,47.40
2018-03-26T20:28:12.982Z,48.40
2018-03-26T20:30:40.304Z,51.93
2018-03-26T20:33:07.627Z,47.07
2018-03-26T20:35:34.915Z,55.20
2018-03-26T20:38:02.219Z,51.70
2018-03-26T20:40:29.505Z,50.80
2018-03-26T20:42:56.809Z,52.37
2018-03-26T20:45:24.104Z,52.07
2018-03-26T20:47:51.391Z,50.43
2018-03-26T20:50:18.782Z,51.37
2018-03-26T20:52:46.083Z,53.60
2018-03-26T20:55:13.433Z,52.40
2018-03-26T20:57:40.696Z,52.87
2018-03-26T21:00:07.990Z,49.60
2018-03-26T21:02:35.297Z,52.70
2018-03-26T21:05:02.630Z,52.47
2018-03-26T21:07:29.910Z,51.97
2018-03-26T21:09:57.210Z,48.20
2018-03-26T21:12:24.501Z,52.10
2018-03-26T21:14:51.827Z,53.63
2018-03-26T21:17:19.143Z,51.20
2018-03-26T21:19:46.464Z,49.00
2018-03-26T21:22:13.784Z,49.27
2018-03-26T21:24:41.074Z,49.33
2018-03-26T21:27:08.411Z,50.57
2018-03-26T21:29:35.695Z,52.50
2018-03-26T21:32:03.001Z,52.67
2018-03-26T21:34:34.195Z,55.73
2018-03-26T21:37:01.486Z,48.97
2018-03-26T21:39:28.779Z,50.70
2018-03-26T21:41:56.074Z,52.33
2018-03-26T21:44:23.377Z,50.43
2018-03-26T21:46:50.692Z,51.10
2018-03-26T21:49:17.983Z,52.30
2018-03-26T21:51:45.280Z,49.80
2018-03-26T21:54:12.580Z,49.73
2018-03-26T21:56:39.899Z,49.37
2018-03-26T21:59:07.187Z,51.63
2018-03-26T22:01:34.469Z,50.87
2018-03-26T22:04:01.802Z,50.00
2018-03-26T22:06:29.079Z,48.57
2018-03-26T22:08:56.375Z,47.93
2018-03-26T22:11:23.691Z,48.57
2018-03-26T22:13:50.981Z,48.40
2018-03-26T22:16:18.275Z,49.90
2018-03-26T22:18:45.553Z,50.63
2018-03-26T22:21:12.846Z,52.13
2018-03-26T22:23:40.155Z,47.20
2018-03-26T22:26:07.435Z,47.90
2018-03-26T22:28:34.746Z,53.33
2018-03-26T22:31:02.039Z,52.03
2018-03-26T22:33:29.356Z,47.40
2018-03-26T22:35:56.648Z,48.97
2018-03-26T22:38:23.931Z,46.57
2018-03-26T22:40:51.235Z,46.90
2018-03-26T22:43:18.523Z,49.10
2018-03-26T22:45:45.828Z,47.27
2018-03-26T22:48:13.126Z,45.80
2018-03-26T22:50:40.422Z,47.00
2018-03-26T22:53:07.716Z,46.37
2018-03-26T22:55:35.006Z,50.30
2018-03-26T22:58:02.304Z,45.27
2018-03-26T23:00:29.599Z,48.50
2018-03-26T23:02:56.900Z,45.07
2018-03-26T23:05:24.187Z,48.53
2018-03-26T23:07:51.488Z,47.63
2018-03-26T23:10:18.787Z,46.60
2018-03-26T23:12:46.093Z,48.33
2018-03-26T23:15:13.386Z,47.73
2018-03-26T23:17:40.676Z,49.70
2018-03-26T23:20:07.978Z,52.87
2018-03-26T23:22:40.976Z,51.03
2018-03-26T23:25:08.284Z,50.50
2018-03-26T23:27:35.563Z,49.73
2018-03-26T23:30:02.863Z,50.10
2018-03-26T23:32:30.167Z,50.93
2018-03-26T23:34:57.472Z,49.83
2018-03-26T23:37:24.766Z,50.00
2018-03-26T23:39:52.075Z,49.07
2018-03-26T23:42:19.365Z,47.73
2018-03-26T23:44:46.706Z,47.87
2018-03-26T23:47:13.988Z,52.20
2018-03-26T23:49:41.275Z,48.63
2018-03-26T23:52:08.568Z,52.13
2018-03-26T23:54:35.866Z,48.60
2018-03-26T23:57:03.164Z,49.70
2018-03-26T23:59:30.463Z,48.70
